createdAt,value
2023-07-26T00:01:01.016Z,45.09
2023-07-26T00:03:28.499Z,44.58
2023-07-26T00:05:55.846Z,44.26
2023-07-26T00:08:23.184Z,44.00
2023-07-26T00:10:50.469Z,43.99
2023-07-26T00:13:18.055Z,44.06
2023-07-26T00:15:45.618Z,43.24
2023-07-26T00:18:13.066Z,42.89
2023-07-26T00:20:40.494Z,42.72
2023-07-26T00:23:07.817Z,42.81
2023-07-26T00:25:36.097Z,42.93
2023-07-26T00:28:03.455Z,42.72
2023-07-26T00:30:30.835Z,42.72
2023-07-26T00:32:58.270Z,42.22
2023-07-26T00:35:26.373Z,42.41
2023-07-26T00:37:53.720Z,41.74
2023-07-26T00:40:21.218Z,41.96
2023-07-26T00:42:48.616Z,41.77
2023-07-26T00:45:15.962Z,41.92
2023-07-26T00:47:43.336Z,41.39
2023-07-26T00:50:10.860Z,40.86
2023-07-26T00:52:38.625Z,39.95
2023-07-26T00:55:06.367Z,39.75
2023-07-26T00:57:33.885Z,40.21
2023-07-26T01:00:01.256Z,39.51
2023-07-26T01:02:28.635Z,39.69
2023-07-26T01:04:56.290Z,39.09
2023-07-26T01:07:32.674Z,39.00
2023-07-26T01:10:02.544Z,38.96
2023-07-26T01:12:43.834Z,38.55
2023-07-26T01:15:12.072Z,38.44
2023-07-26T01:17:39.632Z,38.16
2023-07-26T01:20:07.433Z,38.29
2023-07-26T01:22:34.869Z,39.67
2023-07-26T01:25:02.349Z,40.11
2023-07-26T01:27:29.767Z,38.88
2023-07-26T01:29:58.105Z,38.30
2023-07-26T01:32:25.613Z,37.79
2023-07-26T01:34:53.084Z,37.90
2023-07-26T01:37:20.728Z,38.27
2023-07-26T01:39:49.269Z,38.29
2023-07-26T01:42:16.716Z,38.20
2023-07-26T01:44:44.046Z,39.26
2023-07-26T01:47:11.348Z,38.79
2023-07-26T01:49:38.685Z,38.36
2023-07-26T01:52:07.260Z,38.18
2023-07-26T01:54:34.774Z,38.15
2023-07-26T01:57:02.156Z,38.37
2023-07-26T01:59:29.934Z,38.82
2023-07-26T02:01:58.363Z,39.84
2023-07-26T02:04:26.053Z,39.04
2023-07-26T02:06:53.852Z,39.36
2023-07-26T02:09:21.197Z,39.02
2023-07-26T02:11:48.611Z,38.63
2023-07-26T02:14:17.150Z,38.77
2023-07-26T02:16:44.521Z,38.72
2023-07-26T02:19:11.921Z,38.76
2023-07-26T02:21:39.269Z,39.05
2023-07-26T02:24:06.641Z,39.09
2023-07-26T02:26:33.993Z,39.18
2023-07-26T02:29:01.513Z,38.99
2023-07-26T02:31:29.037Z,39.30
2023-07-26T02:33:56.650Z,39.30
2023-07-26T02:36:25.564Z,39.24
2023-07-26T02:38:52.979Z,39.88
2023-07-26T02:41:20.297Z,40.12
2023-07-26T02:43:47.681Z,39.48
2023-07-26T02:46:15.055Z,39.51
2023-07-26T02:48:42.427Z,39.44
2023-07-26T02:51:09.841Z,39.38
2023-07-26T02:53:37.217Z,39.43
2023-07-26T02:56:04.801Z,39.82
2023-07-26T02:58:32.230Z,40.33
2023-07-26T03:00:59.826Z,39.93
2023-07-26T03:03:27.442Z,39.49
2023-07-26T03:05:58.836Z,40.14
2023-07-26T03:08:26.221Z,39.76
2023-07-26T03:10:53.646Z,39.68
2023-07-26T03:13:21.044Z,39.15
2023-07-26T03:15:50.254Z,38.73
2023-07-26T03:18:17.954Z,38.87
2023-07-26T03:20:46.933Z,38.59
2023-07-26T03:23:14.808Z,38.58
2023-07-26T03:25:42.999Z,38.89
2023-07-26T03:28:10.291Z,38.44
2023-07-26T03:30:37.899Z,38.65
2023-07-26T03:33:05.469Z,38.52
2023-07-26T03:35:33.039Z,38.06
2023-07-26T03:38:00.413Z,38.13
2023-07-26T03:40:27.757Z,37.76
2023-07-26T03:42:55.130Z,36.97
2023-07-26T03:45:22.622Z,36.51
2023-07-26T03:47:50.111Z,36.09
2023-07-26T03:50:21.383Z,35.74
2023-07-26T03:52:48.775Z,35.08
2023-07-26T03:55:16.197Z,34.68
2023-07-26T03:57:44.391Z,34.75
2023-07-26T04:00:12.971Z,34.57
2023-07-26T04:02:40.514Z,35.10
2023-07-26T04:05:08.316Z,34.91
2023-07-26T04:07:41.894Z,34.50
2023-07-26T04:10:10.090Z,34.32
2023-07-26T04:12:37.418Z,34.22
2023-07-26T04:15:05.652Z,33.94
2023-07-26T04:17:32.965Z,33.96
2023-07-26T04:20:00.262Z,34.04
2023-07-26T04:22:27.582Z,33.63
2023-07-26T04:24:54.918Z,33.75
2023-07-26T04:27:22.384Z,34.00
2023-07-26T04:29:49.763Z,34.13
2023-07-26T04:32:17.049Z,34.18
2023-07-26T04:34:44.459Z,34.13
2023-07-26T04:37:11.815Z,33.91
2023-07-26T04:39:39.163Z,33.97
2023-07-26T04:42:06.628Z,33.98
2023-07-26T04:44:33.939Z,34.00
2023-07-26T04:47:01.365Z,34.32
2023-07-26T04:49:28.853Z,34.00
2023-07-26T04:51:56.188Z,33.74
2023-07-26T04:54:23.488Z,33.48
2023-07-26T04:56:50.807Z,33.26
2023-07-26T04:59:18.146Z,33.75
2023-07-26T05:01:45.463Z,33.88
2023-07-26T05:04:12.764Z,33.43
2023-07-26T05:06:40.097Z,32.68
2023-07-26T05:09:07.467Z,32.76
2023-07-26T05:11:35.195Z,33.14
2023-07-26T05:14:03.287Z,33.30
2023-07-26T05:16:30.688Z,33.08
2023-07-26T05:19:00.178Z,32.90
2023-07-26T05:21:27.609Z,32.47
2023-07-26T05:23:54.962Z,31.75
2023-07-26T05:26:22.361Z,31.54
2023-07-26T05:28:49.679Z,31.59
2023-07-26T05:31:18.143Z,31.46
2023-07-26T05:33:45.516Z,31.29
2023-07-26T05:36:52.536Z,35.29
2023-07-26T05:39:19.908Z,33.56
2023-07-26T05:41:47.255Z,33.67
2023-07-26T05:44:14.683Z,33.64
2023-07-26T05:46:42.038Z,33.19
2023-07-26T05:49:10.848Z,32.58
2023-07-26T05:51:38.332Z,31.80
2023-07-26T05:54:05.630Z,31.49
2023-07-26T05:56:32.923Z,31.22
2023-07-26T05:59:00.296Z,30.90
2023-07-26T06:01:28.352Z,31.20
2023-07-26T06:03:55.742Z,31.03
2023-07-26T06:06:23.117Z,30.84
2023-07-26T06:08:52.159Z,30.38
2023-07-26T06:11:19.526Z,30.54
2023-07-26T06:13:47.233Z,30.97
2023-07-26T06:16:14.580Z,30.54
2023-07-26T06:18:41.934Z,30.34
2023-07-26T06:21:10.443Z,30.19
2023-07-26T06:23:37.779Z,30.02
2023-07-26T06:26:05.163Z,30.03
2023-07-26T06:28:32.607Z,29.83
2023-07-26T06:31:00.734Z,29.91
2023-07-26T06:33:28.101Z,29.98
2023-07-26T06:35:55.979Z,29.99
2023-07-26T06:38:23.422Z,29.54
2023-07-26T06:40:51.121Z,29.67
2023-07-26T06:43:18.454Z,29.09
2023-07-26T06:45:51.711Z,28.59
2023-07-26T06:48:19.583Z,28.45
2023-07-26T06:50:47.014Z,28.41
2023-07-26T06:53:14.349Z,28.69
2023-07-26T06:55:41.682Z,28.42
2023-07-26T06:58:09.383Z,28.59
2023-07-26T07:00:36.725Z,28.57
2023-07-26T07:03:04.683Z,28.21
2023-07-26T07:05:39.414Z,28.25
2023-07-26T07:08:06.788Z,28.03
2023-07-26T07:10:34.182Z,27.67
2023-07-26T07:13:01.517Z,27.57
2023-07-26T07:15:28.850Z,27.62
2023-07-26T07:18:09.511Z,27.62
2023-07-26T07:20:42.286Z,27.43
2023-07-26T07:23:10.625Z,27.48
2023-07-26T07:25:39.825Z,27.83
2023-07-26T07:28:07.222Z,27.97
2023-07-26T07:30:36.797Z,28.15
2023-07-26T07:33:04.547Z,28.34
2023-07-26T07:35:32.060Z,28.81
2023-07-26T07:37:59.445Z,29.06
2023-07-26T07:40:27.660Z,28.46
2023-07-26T07:42:55.071Z,28.19
2023-07-26T07:45:22.482Z,28.58
2023-07-26T07:47:49.832Z,28.34
2023-07-26T07:50:17.738Z,28.45
2023-07-26T07:52:45.556Z,28.44
2023-07-26T07:55:12.887Z,28.22
2023-07-26T07:57:40.311Z,27.80
2023-07-26T08:00:10.445Z,27.66
2023-07-26T08:02:40.598Z,28.00
2023-07-26T08:05:08.168Z,27.93
2023-07-26T08:07:35.600Z,27.06
2023-07-26T08:10:03.261Z,26.27
2023-07-26T08:12:30.614Z,25.37
2023-07-26T08:14:57.961Z,24.70
2023-07-26T08:17:25.673Z,25.24
2023-07-26T08:19:53.007Z,25.74
2023-07-26T08:22:20.405Z,25.82
2023-07-26T08:24:51.849Z,25.86
2023-07-26T08:27:19.971Z,25.62
2023-07-26T08:29:47.403Z,25.49
2023-07-26T08:32:14.817Z,25.23
2023-07-26T08:34:42.204Z,25.03
2023-07-26T08:37:10.314Z,25.00
2023-07-26T08:39:37.734Z,24.76
2023-07-26T08:42:05.469Z,25.01
2023-07-26T08:44:32.826Z,25.11
2023-07-26T08:47:00.793Z,25.46
2023-07-26T08:49:28.342Z,25.50
2023-07-26T08:51:57.567Z,25.41
2023-07-26T08:54:26.036Z,25.12
2023-07-26T08:56:53.368Z,25.49
2023-07-26T08:59:20.713Z,25.90
2023-07-26T09:02:01.775Z,26.27
2023-07-26T09:04:31.826Z,26.79
2023-07-26T09:07:05.738Z,27.40
2023-07-26T09:09:34.309Z,27.94
2023-07-26T09:12:02.050Z,28.62
2023-07-26T09:26:43.331Z,32.46
2023-07-26T09:29:14.585Z,32.84
2023-07-26T09:31:44.328Z,34.28
2023-07-26T09:34:16.115Z,35.65
2023-07-26T09:36:49.236Z,36.63
2023-07-26T09:39:18.087Z,37.67
2023-07-26T09:41:47.043Z,38.33
2023-07-26T09:44:16.883Z,39.07
2023-07-26T09:46:51.851Z,39.78
2023-07-26T09:54:34.376Z,40.09
2023-07-26T09:57:04.984Z,41.00
2023-07-26T09:59:32.701Z,41.73
2023-07-26T10:02:07.821Z,41.73
2023-07-26T10:04:40.256Z,42.53
2023-07-26T10:07:12.917Z,42.67
2023-07-26T10:09:48.392Z,42.73
2023-07-26T10:12:16.247Z,42.04
2023-07-26T10:14:43.783Z,41.04
2023-07-26T10:17:11.757Z,39.57
2023-07-26T10:19:39.145Z,38.75
2023-07-26T10:22:08.257Z,39.00
2023-07-26T10:24:35.662Z,39.62
2023-07-26T10:27:03.381Z,39.36
2023-07-26T10:29:30.732Z,38.82
2023-07-26T10:32:04.834Z,38.74
2023-07-26T10:34:32.232Z,36.69
2023-07-26T10:36:59.612Z,35.53
2023-07-26T10:39:31.469Z,35.42
2023-07-26T10:41:58.896Z,35.59
2023-07-26T10:44:26.303Z,35.85
2023-07-26T10:47:11.882Z,35.69
2023-07-26T10:49:39.309Z,36.06
2023-07-26T10:52:07.206Z,36.37
2023-07-26T10:54:47.770Z,35.77
2023-07-26T10:57:27.657Z,35.91
2023-07-26T11:00:02.714Z,35.43
2023-07-26T11:02:46.444Z,34.85
2023-07-26T11:05:18.626Z,33.84
2023-07-26T11:07:49.733Z,33.38
2023-07-26T11:10:24.164Z,33.01
2023-07-26T11:13:12.015Z,33.12
2023-07-26T11:16:11.159Z,32.75
2023-07-26T11:18:30.965Z,31.71
2023-07-26T11:20:58.411Z,30.69
2023-07-26T11:23:28.208Z,30.59
2023-07-26T11:26:05.147Z,29.72
2023-07-26T11:28:34.226Z,29.50
2023-07-26T11:31:02.182Z,29.90
2023-07-26T11:33:33.118Z,29.47
2023-07-26T11:36:02.054Z,28.34
2023-07-26T11:38:29.501Z,28.05
2023-07-26T11:40:59.822Z,28.33
2023-07-26T11:43:31.102Z,29.13
2023-07-26T11:45:58.687Z,29.34
2023-07-26T11:48:32.335Z,29.76
2023-07-26T11:51:06.851Z,29.89
2023-07-26T11:53:45.448Z,30.23
2023-07-26T11:56:16.060Z,30.61
2023-07-26T11:58:45.360Z,30.37
2023-07-26T12:01:13.696Z,30.27
2023-07-26T12:03:41.733Z,30.66
2023-07-26T12:06:10.818Z,30.71
2023-07-26T12:08:39.523Z,30.71
2023-07-26T12:11:08.136Z,30.47
2023-07-26T12:13:36.366Z,30.61
2023-07-26T12:16:04.687Z,30.65
2023-07-26T12:18:33.304Z,30.35
2023-07-26T12:21:05.528Z,30.17
2023-07-26T12:23:53.198Z,29.52
2023-07-26T12:26:42.808Z,29.36
2023-07-26T12:29:10.156Z,29.50
2023-07-26T12:31:40.531Z,29.52
2023-07-26T12:34:14.863Z,29.57
2023-07-26T12:36:42.705Z,30.25
2023-07-26T12:39:10.846Z,29.62
2023-07-26T12:41:42.420Z,29.43
2023-07-26T12:44:12.432Z,29.55
2023-07-26T12:49:11.802Z,28.54
2023-07-26T12:51:39.753Z,28.38
2023-07-26T12:54:07.280Z,28.24
2023-07-26T12:56:35.225Z,28.02
2023-07-26T12:59:08.074Z,27.64
2023-07-26T13:01:38.990Z,27.79
2023-07-26T13:04:07.329Z,28.10
2023-07-26T13:06:35.196Z,28.26
2023-07-26T13:09:02.771Z,28.55
2023-07-26T13:11:30.167Z,28.35
2023-07-26T13:13:58.105Z,28.52
2023-07-26T13:16:30.454Z,28.61
2023-07-26T13:18:58.502Z,28.58
2023-07-26T13:21:25.884Z,28.06
2023-07-26T13:23:53.313Z,28.56
2023-07-26T13:26:20.674Z,29.00
2023-07-26T13:28:48.975Z,29.13
2023-07-26T13:31:18.029Z,28.92
2023-07-26T13:33:50.826Z,29.02
2023-07-26T13:36:23.283Z,29.40
2023-07-26T13:38:50.888Z,29.20
2023-07-26T13:41:18.518Z,29.53
2023-07-26T13:43:45.921Z,29.59
2023-07-26T13:46:28.813Z,30.01
2023-07-26T13:49:00.172Z,30.31
2023-07-26T13:51:27.556Z,29.99
2023-07-26T13:53:54.897Z,29.62
2023-07-26T13:56:22.293Z,29.63
2023-07-26T13:58:49.682Z,29.25
2023-07-26T14:01:17.698Z,29.00
2023-07-26T14:03:45.427Z,28.93
2023-07-26T14:06:12.807Z,28.44
2023-07-26T14:08:40.134Z,28.73
2023-07-26T14:11:07.529Z,28.77
2023-07-26T14:13:34.924Z,28.85
2023-07-26T14:18:32.731Z,28.23
2023-07-26T14:21:00.309Z,28.08
2023-07-26T14:23:30.327Z,27.97
2023-07-26T14:25:57.698Z,27.89
2023-07-26T14:28:25.052Z,28.11
2023-07-26T14:30:52.750Z,27.22
2023-07-26T14:33:20.244Z,26.86
2023-07-26T14:35:48.206Z,26.80
2023-07-26T14:38:15.562Z,26.98
2023-07-26T14:40:42.927Z,27.08
2023-07-26T14:43:10.280Z,27.13
2023-07-26T14:45:37.616Z,27.11
2023-07-26T14:48:05.166Z,27.02
2023-07-26T14:50:32.515Z,27.28
2023-07-26T14:52:59.890Z,27.50
2023-07-26T14:55:28.702Z,27.25
2023-07-26T14:57:58.034Z,27.19
2023-07-26T15:00:25.535Z,27.41
2023-07-26T15:02:52.926Z,27.28
2023-07-26T15:05:20.497Z,27.31
2023-07-26T15:07:48.088Z,27.45
2023-07-26T15:10:17.450Z,27.37
2023-07-26T15:12:47.476Z,27.28
2023-07-26T15:15:15.859Z,26.96
2023-07-26T15:17:43.324Z,27.13
2023-07-26T15:20:11.975Z,27.30
2023-07-26T15:22:39.870Z,27.09
2023-07-26T15:25:07.556Z,26.99
2023-07-26T15:27:34.924Z,26.92
2023-07-26T15:30:04.468Z,26.97
2023-07-26T15:32:32.271Z,27.19
2023-07-26T15:34:59.765Z,27.22
2023-07-26T15:37:27.237Z,27.33
2023-07-26T15:39:54.762Z,27.44
2023-07-26T15:47:25.367Z,27.93
2023-07-26T15:52:23.399Z,28.76
2023-07-26T15:54:50.802Z,29.14
2023-07-26T15:57:18.154Z,29.29
2023-07-26T15:59:45.543Z,29.48
2023-07-26T16:02:13.296Z,29.74
2023-07-26T16:07:11.064Z,30.49
2023-07-26T16:09:38.476Z,30.90
2023-07-26T16:22:09.379Z,32.44
2023-07-26T16:24:36.799Z,32.91
2023-07-26T16:27:04.743Z,33.12
2023-07-26T16:29:33.894Z,33.58
2023-07-26T16:32:01.263Z,33.82
2023-07-26T16:34:29.389Z,33.87
2023-07-26T16:36:57.036Z,34.07
2023-07-26T16:39:24.392Z,34.15
2023-07-26T16:41:51.973Z,34.14
2023-07-26T16:44:19.368Z,34.06
2023-07-26T16:47:07.593Z,33.85
2023-07-26T16:49:34.307Z,33.68
2023-07-26T16:52:01.708Z,33.89
2023-07-26T16:54:29.158Z,33.57
2023-07-26T16:56:56.490Z,33.71
2023-07-26T16:59:23.848Z,33.90
2023-07-26T17:01:51.271Z,34.18
2023-07-26T17:04:18.790Z,34.24
2023-07-26T17:06:46.153Z,33.66
2023-07-26T17:09:13.599Z,33.83
2023-07-26T17:11:40.976Z,34.16
2023-07-26T17:14:08.325Z,34.14
2023-07-26T17:16:35.897Z,34.05
2023-07-26T17:19:03.804Z,33.98
2023-07-26T17:21:31.181Z,34.31
2023-07-26T17:23:58.563Z,34.41
2023-07-26T17:26:31.115Z,34.84
2023-07-26T17:28:58.740Z,35.26
2023-07-26T17:31:27.926Z,34.97
2023-07-26T17:33:55.905Z,34.84
2023-07-26T17:36:23.318Z,35.48
2023-07-26T17:38:51.378Z,35.37
2023-07-26T17:41:18.915Z,35.47
2023-07-26T17:43:47.144Z,35.61
2023-07-26T17:46:14.674Z,35.75
2023-07-26T17:48:42.189Z,35.92
2023-07-26T17:51:10.872Z,35.85
2023-07-26T17:53:38.557Z,35.79
2023-07-26T17:56:06.257Z,35.73
2023-07-26T17:58:34.243Z,35.72
2023-07-26T18:01:01.598Z,35.73
2023-07-26T18:03:29.692Z,35.85
2023-07-26T18:06:03.580Z,36.40
2023-07-26T18:08:31.009Z,36.26
2023-07-26T18:10:59.585Z,36.50
2023-07-26T18:13:27.325Z,37.32
2023-07-26T18:16:09.837Z,38.22
2023-07-26T18:18:37.454Z,38.10
2023-07-26T18:21:06.527Z,37.92
2023-07-26T18:23:34.229Z,37.79
2023-07-26T18:26:01.760Z,37.76
2023-07-26T18:28:29.229Z,38.25
2023-07-26T18:31:04.173Z,38.00
2023-07-26T18:33:31.865Z,37.87
2023-07-26T18:35:59.229Z,38.70
2023-07-26T18:38:26.698Z,39.56
2023-07-26T18:40:54.137Z,40.08
2023-07-26T18:43:24.543Z,40.48
2023-07-26T18:45:52.602Z,40.80
2023-07-26T18:48:23.126Z,40.82
2023-07-26T18:50:51.234Z,40.91
2023-07-26T18:53:18.900Z,41.78
2023-07-26T18:55:48.938Z,42.28
2023-07-26T18:58:16.506Z,42.16
2023-07-26T19:00:44.941Z,43.20
2023-07-26T19:03:12.385Z,42.70
2023-07-26T19:05:40.596Z,42.68
2023-07-26T19:08:08.232Z,43.12
2023-07-26T19:10:40.464Z,43.25
2023-07-26T19:13:08.436Z,43.37
2023-07-26T19:15:36.475Z,43.94
2023-07-26T19:18:04.434Z,44.54
2023-07-26T19:20:32.237Z,45.19
2023-07-26T19:23:04.196Z,45.37
2023-07-26T19:25:34.879Z,45.61
2023-07-26T19:28:02.513Z,45.63
2023-07-26T19:30:32.442Z,45.41
2023-07-26T19:32:59.890Z,45.31
2023-07-26T19:35:29.695Z,45.37
2023-07-26T19:37:57.281Z,45.57
2023-07-26T19:40:24.689Z,46.00
2023-07-26T19:42:52.045Z,45.70
2023-07-26T19:45:19.622Z,45.70
2023-07-26T19:47:48.065Z,45.75
2023-07-26T19:50:16.493Z,46.04
2023-07-26T19:52:44.132Z,46.30
2023-07-26T19:55:12.472Z,46.44
2023-07-26T19:57:39.945Z,47.02
2023-07-26T20:00:08.306Z,47.00
2023-07-26T20:02:41.760Z,46.49
2023-07-26T20:05:09.542Z,46.70
2023-07-26T20:07:36.834Z,47.11
2023-07-26T20:10:04.860Z,47.10
2023-07-26T20:12:32.240Z,46.81
2023-07-26T20:15:01.083Z,46.48
2023-07-26T20:17:30.731Z,46.30
2023-07-26T20:20:00.257Z,46.00
2023-07-26T20:22:27.759Z,45.65
2023-07-26T20:24:55.184Z,45.81
2023-07-26T20:27:22.788Z,46.06
2023-07-26T20:29:50.282Z,45.83
2023-07-26T20:32:17.629Z,45.69
2023-07-26T20:34:45.018Z,45.55
2023-07-26T20:37:12.382Z,45.73
2023-07-26T20:39:39.740Z,45.59
2023-07-26T20:42:07.394Z,45.45
2023-07-26T20:44:34.718Z,45.58
2023-07-26T20:47:02.271Z,45.62
2023-07-26T20:49:30.947Z,45.61
2023-07-26T20:51:58.236Z,45.85
2023-07-26T20:54:25.863Z,45.94
2023-07-26T20:56:53.305Z,46.14
2023-07-26T20:59:20.648Z,46.37
2023-07-26T21:01:50.314Z,46.34
2023-07-26T21:04:19.810Z,46.23
2023-07-26T21:06:47.159Z,46.22
2023-07-26T21:09:14.532Z,46.56
2023-07-26T21:11:41.873Z,46.64
2023-07-26T21:14:09.198Z,46.67
2023-07-26T21:16:36.827Z,47.16
2023-07-26T21:19:04.684Z,46.87
2023-07-26T21:21:32.337Z,46.54
2023-07-26T21:23:59.860Z,46.72
2023-07-26T21:26:27.295Z,46.56
2023-07-26T21:28:54.633Z,46.53
2023-07-26T21:33:19.740Z,54.88
2023-07-26T21:35:46.350Z,51.46
2023-07-26T21:38:14.042Z,50.96
2023-07-26T21:40:40.644Z,50.62
2023-07-26T21:43:07.214Z,50.65
2023-07-26T21:45:33.689Z,50.90
2023-07-26T21:48:02.356Z,50.89
2023-07-26T21:50:29.102Z,50.85
2023-07-26T21:52:56.129Z,50.55
2023-07-26T21:55:22.593Z,50.65
2023-07-26T21:57:49.081Z,50.82
2023-07-26T22:00:16.339Z,51.51
2023-07-26T22:02:43.223Z,52.20
2023-07-26T22:05:10.067Z,52.50
2023-07-26T22:07:37.042Z,52.41
2023-07-26T22:10:04.029Z,52.14
2023-07-26T22:12:30.688Z,52.51
2023-07-26T22:14:57.153Z,52.15
2023-07-26T22:17:23.592Z,52.17
2023-07-26T22:19:50.959Z,52.01
2023-07-26T22:22:17.492Z,51.34
2023-07-26T22:24:47.957Z,51.26
2023-07-26T22:27:14.389Z,51.69
2023-07-26T22:29:40.840Z,51.39
2023-07-26T22:32:08.322Z,51.14
2023-07-26T22:34:34.751Z,50.85
2023-07-26T22:37:01.155Z,50.76
2023-07-26T22:39:27.801Z,50.69
2023-07-26T22:41:54.279Z,50.66
2023-07-26T22:44:21.888Z,50.67
2023-07-26T22:46:48.495Z,50.86
2023-07-26T22:49:14.931Z,50.77
2023-07-26T22:51:41.411Z,51.55
2023-07-26T22:54:07.874Z,51.42
2023-07-26T22:56:34.707Z,50.31
2023-07-26T22:59:01.691Z,50.04
2023-07-26T23:01:28.358Z,49.98
2023-07-26T23:03:54.884Z,50.09
2023-07-26T23:06:21.374Z,50.51
2023-07-26T23:08:47.907Z,51.27
2023-07-26T23:11:14.323Z,51.26
2023-07-26T23:13:40.868Z,50.92
2023-07-26T23:16:07.619Z,51.07
2023-07-26T23:18:34.423Z,51.01
2023-07-26T23:21:00.887Z,51.29
2023-07-26T23:23:27.437Z,51.93
2023-07-26T23:25:53.982Z,51.93
2023-07-26T23:28:20.619Z,52.21
2023-07-26T23:30:48.335Z,52.20
2023-07-26T23:33:15.464Z,52.59
2023-07-26T23:35:45.623Z,52.39
2023-07-26T23:38:12.107Z,52.51
2023-07-26T23:40:38.578Z,52.09
2023-07-26T23:43:08.569Z,51.76
2023-07-26T23:45:35.761Z,51.84
2023-07-26T23:48:02.858Z,52.22
2023-07-26T23:50:29.689Z,51.52
2023-07-26T23:52:56.109Z,51.15
2023-07-26T23:55:23.132Z,50.65
2023-07-26T23:57:49.523Z,50.51
